地図

経路データ

SID SEASON NUMBER BASIN SUBBASIN NAME ISO_TIME NATURE LAT LON WMO_WIND WMO_PRES WMO_AGENCY TRACK_TYPE DIST2LAND LANDFALL IFLAG USA_AGENCY USA_ATCF_ID USA_LAT USA_LON USA_RECORD USA_STATUS USA_WIND USA_PRES USA_SSHS USA_R34_NE USA_R34_SE USA_R34_SW USA_R34_NW USA_R50_NE USA_R50_SE USA_R50_SW USA_R50_NW USA_R64_NE USA_R64_SE USA_R64_SW USA_R64_NW USA_POCI USA_ROCI USA_RMW USA_EYE TOKYO_LAT TOKYO_LON TOKYO_GRADE TOKYO_WIND TOKYO_PRES TOKYO_R50_DIR TOKYO_R50_LONG TOKYO_R50_SHORT TOKYO_R30_DIR TOKYO_R30_LONG TOKYO_R30_SHORT TOKYO_LAND CMA_LAT CMA_LON CMA_CAT CMA_WIND CMA_PRES HKO_LAT HKO_LON HKO_CAT HKO_WIND HKO_PRES NEWDELHI_LAT NEWDELHI_LON NEWDELHI_GRADE NEWDELHI_WIND NEWDELHI_PRES NEWDELHI_CI NEWDELHI_DP NEWDELHI_POCI REUNION_LAT REUNION_LON REUNION_TYPE REUNION_WIND REUNION_PRES REUNION_TNUM REUNION_CI REUNION_RMW REUNION_R34_NE REUNION_R34_SE REUNION_R34_SW REUNION_R34_NW REUNION_R50_NE REUNION_R50_SE REUNION_R50_SW REUNION_R50_NW REUNION_R64_NE REUNION_R64_SE REUNION_R64_SW REUNION_R64_NW BOM_LAT BOM_LON BOM_TYPE BOM_WIND BOM_PRES BOM_TNUM BOM_CI BOM_RMW BOM_R34_NE BOM_R34_SE BOM_R34_SW BOM_R34_NW BOM_R50_NE BOM_R50_SE BOM_R50_SW BOM_R50_NW BOM_R64_NE BOM_R64_SE BOM_R64_SW BOM_R64_NW BOM_ROCI BOM_POCI BOM_EYE BOM_POS_METHOD BOM_PRES_METHOD NADI_LAT NADI_LON NADI_CAT NADI_WIND NADI_PRES WELLINGTON_LAT WELLINGTON_LON WELLINGTON_WIND WELLINGTON_PRES DS824_LAT DS824_LON DS824_STAGE DS824_WIND DS824_PRES TD9636_LAT TD9636_LON TD9636_STAGE TD9636_WIND TD9636_PRES TD9635_LAT TD9635_LON TD9635_WIND TD9635_PRES TD9635_ROCI NEUMANN_LAT NEUMANN_LON NEUMANN_CLASS NEUMANN_WIND NEUMANN_PRES MLC_LAT MLC_LON MLC_CLASS MLC_WIND MLC_PRES USA_GUST BOM_GUST BOM_GUST_PER REUNION_GUST REUNION_GUST_PER USA_SEAHGT USA_SEARAD_NE USA_SEARAD_SE USA_SEARAD_SW USA_SEARAD_NW STORM_SPEED STORM_DIR
1994110S08160 1994 29 SP MM NOT_NAMED 1994-04-20 06:00:00 TS -8.00000 160.000 main 35 24 O___________O_ jtwc_sh SH291994 -8.00000 160.000 15 -1 -8.00000 160.000 TC 15 3 199
1994110S08160 1994 29 SP EA NOT_NAMED 1994-04-20 09:00:00 TS -8.15000 159.948 main 22 0 P___________P_ SH291994 -8.15000 159.948 15 -1 -8.15000 159.948 TC 15 3 197
1994110S08160 1994 29 SP EA NOT_NAMED 1994-04-20 12:00:00 TS -8.30000 159.900 main 0 0 O___________O_ jtwc_sh SH291994 -8.30000 159.900 15 -1 -8.30000 159.900 TC 15 3 196
1994110S08160 1994 29 SP EA NOT_NAMED 1994-04-20 15:00:00 TS -8.45000 159.857 main 11 0 P___________P_ SH291994 -8.45000 159.857 15 -1 -8.45000 159.857 TC 15 3 197
1994110S08160 1994 29 SP EA NOT_NAMED 1994-04-20 18:00:00 TS -8.60000 159.800 main 11 11 O___________O_ jtwc_sh SH291994 -8.60000 159.800 15 -1 -8.60000 159.800 TC 15 3 207
1994110S08160 1994 29 SP EA NOT_NAMED 1994-04-20 21:00:00 TS -8.75001 159.700 main 31 31 P___________P_ SH291994 -8.75001 159.700 15 -1 -8.75001 159.700 TC 15 4 213
1994110S08160 1994 29 SP EA NOT_NAMED 1994-04-21 00:00:00 TS -8.90000 159.600 main 44 33 O___________O_ jtwc_sh SH291994 -8.90000 159.600 15 -1 -8.90000 159.600 TC 15 3 207
1994110S08160 1994 29 SP EA NOT_NAMED 1994-04-21 03:00:00 TS -9.04249 159.550 main 33 15 P___________P_ SH291994 -9.04249 159.550 15 -1 -9.04249 159.550 TC 15 3 197
1994110S08160 1994 29 SP EA NOT_NAMED 1994-04-21 06:00:00 TS -9.20000 159.500 main 15 10 O___________O_ jtwc_sh SH291994 -9.20000 159.500 15 -1 -9.20000 159.500 TC 15 4 202
1994110S08160 1994 29 SP EA NOT_NAMED 1994-04-21 09:00:00 TS -9.40000 159.408 main 21 21 P___________P_ SH291994 -9.40000 159.408 15 -1 -9.40000 159.408 TC 15 4 206
1994110S08160 1994 29 SP EA NOT_NAMED 1994-04-21 12:00:00 TS -9.60000 159.300 main 34 34 O___________O_ jtwc_sh SH291994 -9.60000 159.300 15 -1 -9.60000 159.300 TC 15 4 210
1994110S08160 1994 29 SP EA NOT_NAMED 1994-04-21 15:00:00 TS -9.75000 159.200 main 49 49 P___________P_ SH291994 -9.75000 159.200 15 -1 -9.75000 159.200 TC 15 4 213
1994110S08160 1994 29 SP EA NOT_NAMED 1994-04-21 18:00:00 TS -9.90000 159.100 main 70 70 O___________O_ jtwc_sh SH291994 -9.90000 159.100 15 -1 -9.90000 159.100 TC 15 4 209
1994110S08160 1994 29 SP EA NOT_NAMED 1994-04-21 21:00:00 TS -10.0925 159.007 main 93 93 P___________P_ SH291994 -10.0925 159.007 17 -1 -10.0925 159.007 TC 17 4 206
1994110S08160 1994 29 SP EA NOT_NAMED 1994-04-22 00:00:00 TS -10.3000 158.900 main 113 113 O___________O_ jtwc_sh SH291994 -10.3000 158.900 20 -1 -10.3000 158.900 TC 20 5 212
1994110S08160 1994 29 SP EA NOT_NAMED 1994-04-22 03:00:00 TS -10.4925 158.757 main 134 134 P___________P_ SH291994 -10.4925 158.757 20 -1 -10.4925 158.757 TC 20 5 216
1994110S08160 1994 29 SP EA NOT_NAMED 1994-04-22 06:00:00 TS -10.7000 158.600 main 165 165 O___________O_ jtwc_sh SH291994 -10.7000 158.600 20 -1 -10.7000 158.600 TC 20 5 214
1994110S08160 1994 29 SP EA NOT_NAMED 1994-04-22 09:00:00 TS -10.9350 158.450 main 196 196 P___________P_ SH291994 -10.9350 158.450 20 -1 -10.9350 158.450 TC 20 6 210
1994110S08160 1994 29 SP EA NOT_NAMED 1994-04-22 12:00:00 TS -11.2000 158.300 main 226 226 O___________O_ jtwc_sh SH291994 -11.2000 158.300 20 -1 -11.2000 158.300 TC 20 6 209
1994110S08160 1994 29 SP EA NOT_NAMED 1994-04-22 15:00:00 TS -11.4850 158.135 main 266 266 P___________P_ SH291994 -11.4850 158.135 20 -1 -11.4850 158.135 TC 20 7 206
1994110S08160 1994 29 SP EA NOT_NAMED 1994-04-22 18:00:00 TS -11.8000 158.000 main 298 298 O___________O_ jtwc_sh SH291994 -11.8000 158.000 20 -1 -11.8000 158.000 TC 20 7 199
1994110S08160 1994 29 SP EA NOT_NAMED 1994-04-22 21:00:00 TS -12.1425 157.905 main 330 330 P___________P_ SH291994 -12.1425 157.905 20 -1 -12.1425 157.905 TC 20 7 188
1994110S08160 1994 29 SP EA NOT_NAMED 1994-04-23 00:00:00 TS -12.5000 157.900 main 366 366 O___________O_ jtwc_sh SH291994 -12.5000 157.900 20 -1 -12.5000 157.900 TC 20 7 173
1994110S08160 1994 29 SP EA NOT_NAMED 1994-04-23 03:00:00 TS -12.8500 157.998 main 389 389 P___________P_ SH291994 -12.8500 157.998 22 -1 -12.8500 157.998 TC 22 8 157
1994110S08160 1994 29 SP EA NOT_NAMED 1994-04-23 06:00:00 TS -13.2000 158.200 main 418 418 O___________O_ jtwc_sh SH291994 -13.2000 158.200 25 -1 -13.2000 158.200 TC 25 9 147
1994110S08160 1994 29 SP EA NOT_NAMED 1994-04-23 09:00:00 TS -13.5725 158.470 main 448 448 P___________P_ SH291994 -13.5725 158.470 25 -1 -13.5725 158.470 TC 25 9 140
1994110S08160 1994 29 SP EA NOT_NAMED 1994-04-23 12:00:00 TS -13.9000 158.800 main 471 465 O___________O_ jtwc_sh SH291994 -13.9000 158.800 25 -1 -13.9000 158.800 TC 25 9 131
1994110S08160 1994 29 SP EA NOT_NAMED 1994-04-23 15:00:00 TS -14.1299 159.135 main 470 461 P___________P_ SH291994 -14.1299 159.135 25 -1 -14.1299 159.135 TC 25 8 121
1994110S08160 1994 29 SP EA NOT_NAMED 1994-04-23 18:00:00 TS -14.3000 159.500 main 464 452 O___________O_ jtwc_sh SH291994 -14.3000 159.500 25 -1 -14.3000 159.500 TC 25 8 114
1994110S08160 1994 29 SP EA NOT_NAMED 1994-04-23 21:00:00 TS -14.4651 159.922 main 462 453 P___________P_ SH291994 -14.4651 159.922 27 -1 -14.4651 159.922 TC 27 8 111
1994110S08160 1994 29 SP MM NOT_NAMED 1994-04-24 00:00:00 TS -14.6000 160.300 main 455 451 O___________O_ jtwc_sh SH291994 -14.6000 160.300 30 -1 -14.6000 160.300 TC 30 7 112
1994110S08160 1994 29 SP MM NOT_NAMED 1994-04-24 03:00:00 TS -14.7149 160.553 main 455 455 P___________P_ SH291994 -14.7149 160.553 30 -1 -14.7149 160.553 TC 30 4 117
1994110S08160 1994 29 SP MM NOT_NAMED 1994-04-24 06:00:00 TS -14.8000 160.700 main 463 460 O___________O_ jtwc_sh SH291994 -14.8000 160.700 30 -1 -14.8000 160.700 TC 30 3 120
1994110S08160 1994 29 SP MM NOT_NAMED 1994-04-24 09:00:00 TS -14.8724 160.833 main 471 471 P___________P_ SH291994 -14.8724 160.833 30 -1 -14.8724 160.833 TC 30 1 137
1994110S08160 1994 29 SP MM NOT_NAMED 1994-04-24 12:00:00 TS -14.9000 160.800 main 471 471 O___________O_ jtwc_sh SH291994 -14.9000 160.800 30 -1 -14.9000 160.800 TC 30 3 271
1994110S08160 1994 29 SP MM NOT_NAMED 1994-04-24 15:00:00 TS -14.8651 160.517 main 480 472 P___________P_ SH291994 -14.8651 160.517 27 -1 -14.8651 160.517 TC 27 7 278
1994110S08160 1994 29 SP MM NOT_NAMED 1994-04-24 18:00:00 TS -14.8000 160.100 main 484 484 O___________O_ jtwc_sh SH291994 -14.8000 160.100 25 -1 -14.8000 160.100 TC 25 8 278
1994110S08160 1994 29 SP EA NOT_NAMED 1994-04-24 21:00:00 TS -14.7500 159.708 main 492 492 P___________P_ SH291994 -14.7500 159.708 25 -1 -14.7500 159.708 TC 25 8 277
1994110S08160 1994 29 SP EA NOT_NAMED 1994-04-25 00:00:00 TS -14.7000 159.300 main 514 514 O___________O_ jtwc_sh SH291994 -14.7000 159.300 25 -1 -14.7000 159.300 TC 25 8 277
1994110S08160 1994 29 SP EA NOT_NAMED 1994-04-25 03:00:00 TS -14.6501 158.897 main 538 529 P___________P_ SH291994 -14.6501 158.897 22 -1 -14.6501 158.897 TC 22 8 277
1994110S08160 1994 29 SP EA NOT_NAMED 1994-04-25 06:00:00 TS -14.6000 158.500 main 553 O___________O_ jtwc_sh SH291994 -14.6000 158.500 20 -1 -14.6000 158.500 TC 20 8 277

デジタル台風データ・検索

IBTrACS Databaseについて

本データベースは、米国NOAAが公開する1842年以降の世界の熱帯低気圧のベストトラックデータアーカイブInternational Best Track Archive for Climate Stewardship (IBTrACS)を、ウェブで閲覧しやすい形式に変換したものです。

最終更新日:2021-12-03